Time;durP1;ratioP1;P1;durP2;ratioP2;P2;SDS_P1;SDS_P2;PMS_P1;PMS_P2;Temp;Humidity;BMP_temperature;BMP_pressure;BME280_temperature;BME280_humidity;BME280_pressure;Samples;Min_cycle;Max_cycle;Signal;HPM_P1;HPM_P2
2023/05/08 00:00:34;;;;;;;8.73;3.67;;;13.70;99.90;;;13.08;100.00;101869.97;4120261;28;20027;-71
2023/05/08 00:02:34;;;;;;;11.23;4.65;;;13.70;99.90;;;13.05;100.00;101870.22;4135368;28;20073;-71
2023/05/08 00:04:35;;;;;;;5.90;3.67;;;13.70;99.90;;;13.13;100.00;101875.66;4120087;28;20026;-71
2023/05/08 00:06:36;;;;;;;7.95;3.50;;;13.70;99.90;;;13.17;100.00;101883.16;4118857;28;20035;-72
2023/05/08 00:08:38;;;;;;;5.55;3.47;;;13.80;99.90;;;13.18;100.00;101879.53;4134881;28;20027;-71
2023/05/08 00:10:39;;;;;;;5.47;3.17;;;13.80;99.90;;;13.21;100.00;101884.56;4134946;28;20109;-71
2023/05/08 00:12:40;;;;;;;8.48;3.20;;;13.80;99.90;;;13.22;100.00;101878.28;4119972;28;20491;-71
2023/05/08 00:14:40;;;;;;;9.43;3.63;;;13.80;99.90;;;13.21;100.00;101873.97;4119915;28;20034;-71
2023/05/08 00:16:41;;;;;;;7.78;3.42;;;13.90;99.90;;;13.25;100.00;101878.00;4120319;28;20030;-71
2023/05/08 00:18:42;;;;;;;6.72;3.35;;;13.90;99.90;;;13.22;100.00;101870.34;4118798;28;20042;-71
2023/05/08 00:20:43;;;;;;;8.13;3.63;;;13.90;99.90;;;13.30;100.00;101882.84;4134888;28;20039;-71
2023/05/08 00:22:44;;;;;;;6.43;3.17;;;13.90;99.90;;;13.34;100.00;101878.94;4119953;28;20031;-72
2023/05/08 00:24:44;;;;;;;9.77;4.30;;;14.00;99.90;;;13.37;100.00;101881.28;4119754;28;20078;-71
2023/05/08 00:26:45;;;;;;;6.05;3.60;;;14.00;99.90;;;13.33;100.00;101869.31;4121088;28;20062;-71
2023/05/08 00:28:47;;;;;;;5.53;3.30;;;14.00;99.90;;;13.38;100.00;101880.28;4138112;28;20034;-71
2023/05/08 00:30:48;;;;;;;6.82;4.13;;;14.00;99.90;;;13.38;100.00;101875.00;4138024;28;20077;-71
2023/05/08 00:32:49;;;;;;;6.35;3.33;;;14.00;99.90;;;13.33;100.00;101874.59;4123218;28;20453;-71
2023/05/08 00:34:50;;;;;;;8.07;3.80;;;14.00;99.90;;;13.34;100.00;101867.50;4123228;28;20030;-71
2023/05/08 00:36:51;;;;;;;7.40;3.55;;;14.00;99.90;;;13.32;100.00;101876.41;4123108;28;20023;-71
2023/05/08 00:38:52;;;;;;;7.90;3.72;;;14.00;99.90;;;13.27;100.00;101862.78;4137841;28;20034;-72
2023/05/08 00:40:53;;;;;;;5.40;3.00;;;14.00;99.90;;;13.23;100.00;101869.34;4122975;28;20487;-71
2023/05/08 00:42:53;;;;;;;7.57;3.65;;;13.90;99.90;;;13.18;100.00;101860.16;4123006;28;20022;-72
2023/05/08 00:44:55;;;;;;;10.00;4.55;;;13.90;99.90;;;13.20;100.00;101859.03;4122785;28;20059;-72
2023/05/08 00:46:56;;;;;;;7.57;3.15;;;13.90;99.90;;;13.17;100.00;101856.66;4122905;28;20065;-71
2023/05/08 00:48:57;;;;;;;5.43;2.60;;;13.80;99.90;;;13.15;100.00;101847.19;4122780;28;20031;-71
2023/05/08 00:50:59;;;;;;;7.55;3.72;;;13.90;99.90;;;13.18;100.00;101847.75;4137971;28;20433;-72
2023/05/08 00:53:03;;;;;;;10.48;3.55;;;13.80;99.90;;;13.07;100.00;101836.47;4137604;28;20034;-71
2023/05/08 00:55:05;;;;;;;5.88;3.22;;;13.80;99.90;;;13.19;100.00;101854.72;4137815;28;20033;-71
2023/05/08 00:57:07;;;;;;;10.25;3.83;;;13.80;99.90;;;13.16;100.00;101854.19;4122724;28;20134;-71
2023/05/08 00:59:14;;;;;;;7.15;3.25;;;13.80;99.90;;;13.14;100.00;101850.84;4122787;28;20035;-72
2023/05/08 01:01:15;;;;;;;5.70;3.08;;;13.80;99.90;;;13.16;100.00;101849.72;4137336;28;20049;-72
2023/05/08 01:03:16;;;;;;;7.43;4.05;;;13.80;99.90;;;13.16;100.00;101847.06;4137550;28;20026;-71
2023/05/08 01:05:17;;;;;;;9.85;3.55;;;13.80;99.90;;;13.14;100.00;101850.84;4137636;28;20454;-72
2023/05/08 01:07:18;;;;;;;5.20;3.10;;;13.80;99.90;;;13.11;100.00;101849.31;4121654;28;20033;-72
2023/05/08 01:09:19;;;;;;;4.93;2.88;;;13.80;99.90;;;13.17;100.00;101856.66;4122609;28;20034;-71
2023/05/08 01:11:40;;;;;;;5.32;2.92;;;13.80;99.90;;;13.16;100.00;101848.88;4137685;28;20022;-71
2023/05/08 01:14:15;;;;;;;4.95;3.05;;;13.80;99.90;;;13.20;100.00;101851.06;4121252;28;20038;-72
2023/05/08 01:16:19;;;;;;;10.50;4.77;;;13.80;99.90;;;13.15;100.00;101840.09;4137083;28;20128;-72
2023/05/08 01:18:41;;;;;;;8.25;3.88;;;13.80;99.90;;;13.15;100.00;101849.84;4137257;28;20273;-72
2023/05/08 01:20:52;;;;;;;6.60;3.65;;;13.80;99.90;;;13.11;100.00;101851.94;4136435;28;20536;-71
2023/05/08 01:23:54;;;;;;;11.20;4.13;;;13.80;99.90;;;13.06;100.00;101848.03;4137533;28;20409;-71
2023/05/08 01:26:07;;;;;;;9.88;4.10;;;13.80;99.90;;;13.00;100.00;101838.88;4117940;28;20050;-71
2023/05/08 01:28:56;;;;;;;10.10;3.30;;;13.70;99.90;;;12.97;100.00;101847.09;4122347;28;20031;-72
2023/05/08 01:31:41;;;;;;;7.25;3.47;;;13.70;99.90;;;12.98;100.00;101845.28;4134930;28;20022;-72
2023/05/08 01:34:30;;;;;;;6.38;3.28;;;13.70;99.90;;;12.96;100.00;101845.41;4122456;28;20118;-71
2023/05/08 01:36:50;;;;;;;6.03;2.97;;;13.60;99.90;;;12.97;100.00;101851.56;4136564;28;20077;-71
2023/05/08 01:39:00;;;;;;;8.38;3.17;;;13.60;99.90;;;12.98;100.00;101840.84;4136565;28;20617;-71
2023/05/08 01:41:13;;;;;;;6.93;3.40;;;13.60;99.90;;;13.00;100.00;101848.63;4122439;28;20034;-71
2023/05/08 01:43:41;;;;;;;4.88;3.17;;;13.60;99.90;;;12.92;100.00;101837.91;4122093;28;20027;-71
2023/05/08 01:45:47;;;;;;;5.93;3.25;;;13.60;99.90;;;12.97;100.00;101846.25;4136644;28;20027;-71
2023/05/08 01:47:59;;;;;;;5.60;2.67;;;13.60;99.90;;;13.02;100.00;101847.50;4136960;28;20487;-71
2023/05/08 01:50:17;;;;;;;6.53;3.03;;;13.60;99.90;;;13.05;100.00;101852.50;4121018;28;20019;-71
2023/05/08 01:52:34;;;;;;;7.57;3.85;;;13.70;99.90;;;13.04;100.00;101834.97;4135690;28;20473;-71
2023/05/08 01:54:57;;;;;;;11.30;4.13;;;13.70;99.90;;;13.13;100.00;101849.16;4136681;28;20030;-71
2023/05/08 01:57:00;;;;;;;7.50;3.47;;;13.80;99.90;;;13.13;100.00;101836.75;4136252;28;20030;-71
2023/05/08 01:59:03;;;;;;;7.25;4.10;;;13.80;99.90;;;13.16;100.00;101831.19;4136816;28;20029;-71
2023/05/08 02:01:04;;;;;;;5.15;2.97;;;13.80;99.90;;;13.19;100.00;101833.53;4136804;28;20053;-72
2023/05/08 02:03:08;;;;;;;8.07;3.60;;;13.90;99.90;;;13.20;100.00;101826.44;4121868;28;20078;-71
2023/05/08 02:05:09;;;;;;;5.25;2.60;;;13.90;99.90;;;13.23;100.00;101829.59;4136574;28;20038;-72
2023/05/08 02:07:11;;;;;;;8.02;3.97;;;13.90;99.90;;;13.19;100.00;101809.69;4136728;28;20105;-71
2023/05/08 02:09:13;;;;;;;8.75;3.88;;;14.00;99.90;;;13.26;100.00;101817.88;4104325;28;20120;-72
2023/05/08 02:11:16;;;;;;;12.05;3.50;;;14.00;99.90;;;13.29;100.00;101823.69;4132832;28;20030;-71
2023/05/08 02:13:20;;;;;;;6.50;3.03;;;13.90;99.90;;;13.27;100.00;101820.38;4136694;28;20018;-71
2023/05/08 02:15:23;;;;;;;5.25;2.70;;;13.90;99.90;;;13.24;100.00;101831.28;4120440;28;20031;-71
2023/05/08 02:17:24;;;;;;;6.10;3.20;;;13.90;99.90;;;13.19;100.00;101830.88;4136492;28;20034;-71
2023/05/08 02:19:27;;;;;;;6.40;2.95;;;13.90;99.90;;;13.17;100.00;101838.13;4121557;28;20066;-71
2023/05/08 02:21:30;;;;;;;5.97;3.30;;;13.90;99.90;;;13.17;100.00;101840.78;4136642;28;20022;-71
2023/05/08 02:23:33;;;;;;;6.57;3.55;;;13.80;99.90;;;13.18;100.00;101842.44;4121325;28;20035;-71
2023/05/08 02:25:35;;;;;;;4.40;3.00;;;13.80;99.90;;;13.20;100.00;101823.78;4136407;28;20027;-71
2023/05/08 02:27:37;;;;;;;7.68;3.80;;;13.90;99.90;;;13.25;100.00;101821.50;4136168;28;20026;-71
2023/05/08 02:29:38;;;;;;;7.65;3.83;;;13.90;99.90;;;13.23;100.00;101808.38;4136456;28;20057;-71
2023/05/08 02:31:41;;;;;;;6.82;3.45;;;13.90;99.90;;;13.23;100.00;101803.09;4120238;28;20023;-71
2023/05/08 02:33:44;;;;;;;7.80;3.53;;;13.90;99.90;;;13.26;100.00;101816.03;4136325;28;20023;-71
2023/05/08 02:35:49;;;;;;;5.65;3.10;;;13.90;99.90;;;13.26;100.00;101816.03;4136154;28;20406;-71
2023/05/08 02:37:54;;;;;;;8.15;3.58;;;14.00;99.90;;;13.24;100.00;101811.88;4121468;28;20031;-71
2023/05/08 02:39:57;;;;;;;5.80;3.03;;;13.90;99.90;;;13.28;100.00;101822.06;4136137;28;20031;-71
2023/05/08 02:41:59;;;;;;;6.25;3.15;;;13.90;99.90;;;13.28;100.00;101819.41;4120864;28;20027;-71
2023/05/08 02:44:01;;;;;;;5.38;3.03;;;14.00;99.90;;;13.30;100.00;101814.78;4120987;28;20054;-71
2023/05/08 02:46:33;;;;;;;8.52;3.45;;;13.90;99.90;;;13.37;100.00;101819.50;4121467;28;20038;-71
2023/05/08 02:48:57;;;;;;;4.35;3.15;;;13.90;99.90;;;13.39;100.00;101826.31;4118895;28;20047;-71
2023/05/08 02:51:36;;;;;;;5.03;3.50;;;14.00;99.90;;;13.40;100.00;101832.44;4120428;28;20170;-71
2023/05/08 02:54:10;;;;;;;6.43;2.90;;;14.10;99.90;;;13.41;100.00;101836.78;4119527;28;20031;-71
2023/05/08 02:56:43;;;;;;;8.38;3.25;;;14.10;99.90;;;13.40;100.00;101829.81;4119824;28;20035;-71
2023/05/08 02:58:48;;;;;;;8.73;3.10;;;14.10;99.90;;;13.41;100.00;101828.81;4118689;28;20082;-71
2023/05/08 03:01:06;;;;;;;6.35;2.83;;;14.10;99.90;;;13.45;100.00;101832.84;4104062;28;20027;-72
2023/05/08 03:03:14;;;;;;;6.32;2.65;;;14.10;99.90;;;13.46;100.00;101829.22;4119784;28;20070;-72
2023/05/08 03:05:24;;;;;;;4.20;2.67;;;14.10;99.90;;;13.45;100.00;101827.53;4111477;28;20454;-71
2023/05/08 03:07:27;;;;;;;6.60;2.40;;;14.10;99.90;;;13.48;100.00;101832.53;4120793;28;20096;-72
2023/05/08 03:09:46;;;;;;;4.55;2.70;;;14.10;99.90;;;13.48;100.00;101824.59;4120647;28;20109;-72
2023/05/08 03:11:52;;;;;;;6.90;3.55;;;14.10;99.90;;;13.46;100.00;101813.31;4135769;28;20030;-71
2023/05/08 03:13:58;;;;;;;10.48;3.90;;;14.20;99.90;;;13.49;100.00;101819.16;4135307;28;20125;-71
2023/05/08 03:16:03;;;;;;;6.65;3.30;;;14.20;99.90;;;13.52;100.00;101833.91;4135627;28;20034;-71
2023/05/08 03:18:10;;;;;;;7.05;3.17;;;14.20;99.90;;;13.53;100.00;101835.59;4135608;28;20474;-71
2023/05/08 03:20:17;;;;;;;7.38;3.00;;;14.20;99.90;;;13.55;100.00;101831.81;4119324;28;20027;-72
2023/05/08 03:22:21;;;;;;;6.07;4.07;;;14.20;99.90;;;13.57;100.00;101834.28;4119537;28;20026;-71
2023/05/08 03:24:24;;;;;;;4.53;2.80;;;14.20;99.90;;;13.54;100.00;101824.00;4120248;28;20050;-71
2023/05/08 03:26:26;;;;;;;5.30;2.97;;;14.20;99.90;;;13.53;100.00;101814.38;4135529;28;20541;-71
2023/05/08 03:28:28;;;;;;;7.10;3.15;;;14.20;99.90;;;13.58;100.00;101822.72;4120425;28;20049;-71
2023/05/08 03:30:30;;;;;;;8.95;3.70;;;14.20;99.90;;;13.59;100.00;101824.41;4135362;28;20037;-71
2023/05/08 03:32:33;;;;;;;5.57;3.30;;;14.20;99.90;;;13.55;100.00;101818.56;4120552;28;20023;-71
2023/05/08 03:34:35;;;;;;;7.97;4.13;;;14.20;99.90;;;13.55;100.00;101815.06;4123242;28;20457;-71
2023/05/08 03:36:36;;;;;;;5.57;3.33;;;14.20;99.90;;;13.57;100.00;101815.75;4135561;28;20488;-71
2023/05/08 03:38:37;;;;;;;4.88;3.08;;;14.20;99.90;;;13.59;100.00;101814.59;4118999;28;20034;-71
2023/05/08 03:40:41;;;;;;;6.47;2.92;;;14.20;99.90;;;13.59;100.00;101808.50;4120307;28;20084;-71
2023/05/08 03:42:42;;;;;;;6.82;3.50;;;14.30;99.90;;;13.56;100.00;101808.78;4134948;28;20031;-71
2023/05/08 03:44:44;;;;;;;5.10;3.38;;;14.20;99.90;;;13.58;100.00;101804.16;4119212;28;20078;-71
2023/05/08 03:46:49;;;;;;;5.60;3.05;;;14.30;99.90;;;13.59;100.00;101813.78;4135250;28;20045;-71
2023/05/08 03:48:52;;;;;;;6.88;3.92;;;14.20;99.90;;;13.56;100.00;101808.78;4134478;28;20093;-71
2023/05/08 03:50:54;;;;;;;6.88;3.60;;;14.20;99.90;;;13.55;100.00;101804.47;4135253;28;20030;-72
2023/05/08 03:52:55;;;;;;;3.42;2.60;;;14.20;99.90;;;13.54;100.00;101802.78;4134318;28;20045;-72
2023/05/08 03:54:56;;;;;;;5.80;2.72;;;14.20;99.90;;;13.58;100.00;101809.47;4119167;28;20510;-72
2023/05/08 03:56:56;;;;;;;8.50;3.50;;;14.20;99.90;;;13.60;100.00;101807.50;4120058;28;20030;-71
2023/05/08 03:59:42;;;;;;;7.00;3.42;;;14.20;99.90;;;13.60;100.00;101810.97;4120236;28;20379;-72
2023/05/08 04:02:38;;;;;;;5.15;4.00;;;14.20;99.90;;;13.55;100.00;101807.94;4131853;28;20113;-71
2023/05/08 04:04:40;;;;;;;;;;;14.20;99.90;;;13.51;100.00;101800.44;4096554;28;20051;-72
2023/05/08 04:07:17;;;;;;;4.43;2.70;;;14.20;99.90;;;13.52;100.00;101807.41;4118609;28;19916;-71
2023/05/08 04:10:06;;;;;;;5.95;3.17;;;14.20;99.90;;;13.50;100.00;101804.09;4119899;28;20402;-71
2023/05/08 04:12:25;;;;;;;6.60;3.67;;;14.20;99.90;;;13.45;100.00;101801.88;4132403;28;20166;-71
2023/05/08 04:14:36;;;;;;;6.18;3.75;;;14.10;99.90;;;13.44;100.00;101807.34;4134951;28;20513;-71
2023/05/08 04:16:43;;;;;;;7.82;4.35;;;14.10;99.90;;;13.41;100.00;101811.09;4118922;28;20027;-71
2023/05/08 04:18:48;;;;;;;10.18;4.85;;;14.10;99.90;;;13.38;100.00;101802.63;4134523;28;20053;-71
2023/05/08 04:20:53;;;;;;;9.13;5.57;;;14.00;99.90;;;13.35;100.00;101813.50;4134708;28;20023;-71
2023/05/08 04:22:56;;;;;;;11.57;4.93;;;14.00;99.90;;;13.30;100.00;101808.63;4118492;28;20031;-71
2023/05/08 04:25:01;;;;;;;8.30;3.97;;;14.00;99.90;;;13.20;100.00;101792.78;4134863;28;20026;-71
2023/05/08 04:27:03;;;;;;;7.78;4.70;;;13.90;99.90;;;13.24;100.00;101810.06;4134712;28;20265;-71
2023/05/08 04:29:06;;;;;;;7.88;3.60;;;13.90;99.90;;;13.21;100.00;101813.00;4134727;28;20034;-71
2023/05/08 04:31:08;;;;;;;7.50;4.03;;;13.90;99.90;;;13.21;100.00;101813.00;4134781;28;20022;-71
2023/05/08 04:33:10;;;;;;;7.72;5.50;;;13.90;99.90;;;13.20;100.00;101818.47;4134659;28;20029;-71
2023/05/08 04:35:13;;;;;;;9.95;4.65;;;13.80;99.90;;;13.18;100.00;101823.91;4118709;28;20027;-71
2023/05/08 04:37:26;;;;;;;6.82;4.93;;;13.80;99.90;;;13.15;100.00;101818.06;4134449;28;20545;-72
2023/05/08 04:39:26;;;;;;;6.70;4.35;;;13.80;99.90;;;13.13;100.00;101818.22;4134600;28;20030;-71
2023/05/08 04:41:27;;;;;;;8.23;4.15;;;13.80;99.90;;;13.13;100.00;101827.97;4118744;28;20406;-71
2023/05/08 04:43:28;;;;;;;10.45;4.53;;;13.80;99.90;;;13.11;100.00;101828.09;4119484;28;20015;-71
2023/05/08 04:45:29;;;;;;;12.35;4.43;;;13.80;99.90;;;13.10;100.00;101820.31;4118556;28;20037;-72
2023/05/08 04:47:30;;;;;;;7.70;4.20;;;13.80;99.90;;;13.08;100.00;101824.94;4119352;28;20019;-71
2023/05/08 04:49:31;;;;;;;7.90;4.35;;;13.80;99.90;;;13.08;100.00;101827.59;4119942;28;20027;-71
2023/05/08 04:51:32;;;;;;;6.30;4.25;;;13.80;99.90;;;13.05;100.00;101833.97;4120013;28;20475;-72
2023/05/08 04:53:33;;;;;;;7.30;4.65;;;13.70;99.90;;;13.03;100.00;101838.56;4118104;28;20031;-71
2023/05/08 04:55:34;;;;;;;7.85;3.95;;;13.70;99.90;;;13.00;100.00;101833.56;4119665;28;20069;-71
2023/05/08 04:57:35;;;;;;;4.50;3.75;;;13.70;99.90;;;13.00;100.00;101830.91;4134571;28;20045;-71
2023/05/08 04:59:35;;;;;;;6.80;4.25;;;13.70;99.90;;;13.00;100.00;101836.22;4119743;28;20019;-72
2023/05/08 05:01:36;;;;;;;5.32;3.45;;;13.70;99.90;;;13.00;100.00;101843.31;4134495;28;20394;-71
2023/05/08 05:03:37;;;;;;;5.75;3.90;;;13.70;99.90;;;13.01;100.00;101845.84;4118469;28;20030;-71
2023/05/08 05:05:38;;;;;;;8.35;4.15;;;13.70;99.90;;;13.02;100.00;101851.97;4119567;28;20031;-71
2023/05/08 05:07:39;;;;;;;8.18;4.22;;;13.70;99.90;;;12.98;100.00;101853.22;4119652;28;20030;-71
2023/05/08 05:09:40;;;;;;;9.60;3.95;;;13.70;99.90;;;12.98;100.00;101859.38;4119375;28;20027;-71
2023/05/08 05:11:41;;;;;;;6.35;3.67;;;13.70;99.90;;;13.00;100.00;101856.56;4134567;28;20030;-71
2023/05/08 05:13:41;;;;;;;5.68;3.33;;;13.70;99.90;;;13.02;100.00;101863.38;4106136;28;20027;-71
2023/05/08 05:15:42;;;;;;;7.53;3.08;;;13.70;99.90;;;13.01;100.00;101860.91;4122613;28;20034;-71
2023/05/08 05:17:43;;;;;;;10.02;3.85;;;13.70;99.90;;;12.96;100.00;101865.78;4137498;28;20032;-71
2023/05/08 05:19:44;;;;;;;8.07;3.78;;;13.70;99.90;;;13.01;100.00;101874.13;4121415;28;20027;-71
2023/05/08 05:21:45;;;;;;;4.57;3.33;;;13.70;99.90;;;13.02;100.00;101873.16;4123076;28;20038;-71
2023/05/08 05:23:46;;;;;;;6.63;3.33;;;13.70;99.90;;;13.08;100.00;101875.28;4137210;28;20034;-71
2023/05/08 05:25:47;;;;;;;8.00;3.83;;;13.70;99.90;;;13.07;100.00;101877.06;4105193;29;20034;-71
2023/05/08 05:27:48;;;;;;;5.07;2.88;;;13.70;99.90;;;13.09;100.00;101885.72;4122237;28;20023;-71
2023/05/08 05:29:49;;;;;;;5.78;3.63;;;13.70;99.90;;;13.09;100.00;101883.06;4122687;28;20482;-71
2023/05/08 05:31:50;;;;;;;7.32;3.63;;;13.80;99.90;;;13.09;100.00;101880.41;4122449;28;20513;-71
2023/05/08 05:33:52;;;;;;;6.93;4.15;;;13.80;99.90;;;13.12;100.00;101876.63;4122416;28;20026;-71
2023/05/08 05:35:52;;;;;;;7.20;3.30;;;13.80;99.90;;;13.10;100.00;101868.84;4122195;28;20027;-71
2023/05/08 05:37:53;;;;;;;6.50;4.03;;;13.80;99.90;;;13.14;100.00;101875.50;4137150;28;20050;-71
2023/05/08 05:39:54;;;;;;;5.63;3.85;;;13.80;99.90;;;13.17;100.00;101883.16;4122277;28;20034;-71
2023/05/08 05:41:55;;;;;;;4.60;3.33;;;13.80;99.90;;;13.16;100.00;101878.88;4122138;28;20062;-71
2023/05/08 05:43:56;;;;;;;5.88;3.90;;;13.80;99.90;;;13.18;100.00;101882.19;4121837;28;20466;-71
2023/05/08 05:46:04;;;;;;;8.13;3.40;;;13.80;99.90;;;13.21;100.00;101884.56;4137146;28;20046;-71
2023/05/08 05:48:06;;;;;;;8.68;4.10;;;13.80;99.90;;;13.17;100.00;101891.09;4121935;28;20037;-72
2023/05/08 05:50:07;;;;;;;6.80;3.92;;;13.80;99.90;;;13.17;100.00;101885.00;4119686;28;20023;-72
2023/05/08 05:52:08;;;;;;;7.82;3.70;;;13.90;99.90;;;13.13;100.00;101886.25;4122099;28;20364;-72
2023/05/08 05:54:08;;;;;;;7.38;4.03;;;13.90;99.90;;;13.18;100.00;101892.78;4121850;28;20029;-72
2023/05/08 05:56:10;;;;;;;8.30;4.35;;;13.90;99.90;;;13.14;100.00;101893.25;4122055;28;20030;-72
2023/05/08 05:58:11;;;;;;;8.40;3.45;;;13.90;99.90;;;13.15;100.00;101890.44;4120389;28;20023;-72
2023/05/08 06:00:12;;;;;;;8.45;3.97;;;13.80;99.90;;;13.17;100.00;101899.06;4122032;28;20521;-71
2023/05/08 06:02:17;;;;;;;7.80;4.05;;;13.80;99.90;;;13.18;100.00;101895.44;4122049;28;20027;-71
2023/05/08 06:04:18;;;;;;;7.50;4.50;;;13.90;99.90;;;13.18;100.00;101895.44;4121792;28;20487;-71
2023/05/08 06:06:18;;;;;;;7.88;3.80;;;13.90;99.90;;;13.16;100.00;101893.91;4120578;28;20035;-71
2023/05/08 06:08:19;;;;;;;5.57;3.75;;;13.90;99.90;;;13.18;100.00;101894.59;4136292;28;20030;-71
2023/05/08 06:10:20;;;;;;;7.03;4.20;;;13.90;99.90;;;13.24;100.00;101896.66;4120691;28;20047;-71
2023/05/08 06:12:21;;;;;;;6.60;3.75;;;13.90;99.90;;;13.27;100.00;101894.56;4121875;28;20101;-71
2023/05/08 06:14:22;;;;;;;6.90;3.72;;;13.90;99.90;;;13.32;100.00;101898.63;4121702;28;20058;-71
2023/05/08 06:16:23;;;;;;;8.43;4.13;;;13.90;99.90;;;13.34;100.00;101904.59;4121618;28;20035;-71
2023/05/08 06:18:25;;;;;;;8.40;3.63;;;14.00;99.90;;;13.38;100.00;101900.69;4121810;28;20054;-71
2023/05/08 06:20:25;;;;;;;8.60;4.68;;;14.00;99.90;;;13.38;100.00;101900.69;4121704;28;20117;-71
2023/05/08 06:22:28;;;;;;;6.22;3.60;;;14.00;99.90;;;13.39;100.00;101894.38;4121629;28;20540;-71
2023/05/08 06:24:29;;;;;;;8.23;4.50;;;14.00;99.90;;;13.41;100.00;101901.19;4120485;28;20494;-71
2023/05/08 06:26:29;;;;;;;7.65;4.78;;;14.00;99.90;;;13.42;100.00;101902.03;4121679;28;20038;-71
2023/05/08 06:28:30;;;;;;;8.82;5.00;;;14.10;99.90;;;13.40;100.00;101902.19;4121574;28;20035;-71
2023/05/08 06:30:31;;;;;;;8.88;4.82;;;14.10;99.90;;;13.40;100.00;101883.66;4136445;28;20033;-71
2023/05/08 06:32:32;;;;;;;6.72;4.70;;;14.10;99.90;;;13.42;100.00;101883.50;4121430;28;20081;-71
2023/05/08 06:34:33;;;;;;;10.60;5.22;;;14.10;99.90;;;13.50;100.00;101891.56;4136104;28;20193;-71
2023/05/08 06:36:35;;;;;;;10.18;4.50;;;14.10;99.90;;;13.52;100.00;101887.78;4112295;28;20061;-71
2023/05/08 06:38:36;;;;;;;5.95;4.30;;;14.20;99.90;;;13.58;100.00;101881.88;4119802;28;20027;-71
2023/05/08 06:40:44;;;;;;;10.77;4.78;;;14.20;99.90;;;13.51;100.00;101866.69;4119931;28;20410;-71
2023/05/08 06:42:46;;;;;;;5.22;3.60;;;14.30;99.90;;;13.69;100.00;101888.78;4121367;28;20462;-71
2023/05/08 06:44:47;;;;;;;5.25;3.70;;;14.30;99.90;;;13.72;100.00;101877.88;4121233;28;20047;-71
2023/05/08 06:46:47;;;;;;;7.28;4.43;;;14.40;99.90;;;13.82;100.00;101891.94;4136321;28;20497;-71
2023/05/08 06:48:48;;;;;;;7.32;4.13;;;14.40;99.90;;;13.78;100.00;101877.28;4121238;28;20066;-71
2023/05/08 06:50:50;;;;;;;6.10;4.57;;;14.50;99.90;;;13.87;100.00;101892.31;4120032;28;20031;-71
2023/05/08 06:52:51;;;;;;;6.57;4.57;;;14.50;99.90;;;13.82;100.00;101882.16;4120951;28;20026;-71
2023/05/08 06:54:52;;;;;;;8.15;4.68;;;14.60;99.90;;;13.96;100.00;101901.19;4121008;28;20022;-71
2023/05/08 06:56:53;;;;;;;7.03;4.38;;;14.60;99.90;;;14.01;100.00;101898.94;4121012;28;20027;-71
2023/05/08 06:58:54;;;;;;;8.75;4.57;;;14.60;99.90;;;14.05;100.00;101895.81;4121193;28;20038;-71
2023/05/08 07:00:55;;;;;;;5.95;3.60;;;14.70;99.90;;;14.10;100.00;101885.59;4121071;28;20035;-71
2023/05/08 07:02:56;;;;;;;7.63;4.18;;;14.70;99.90;;;14.17;100.00;101897.28;4120958;28;20486;-71
2023/05/08 07:04:56;;;;;;;4.82;3.50;;;14.70;99.90;;;14.22;100.00;101891.50;4120741;28;20038;-71
2023/05/08 07:06:57;;;;;;;9.73;4.80;;;14.80;99.90;;;14.24;100.00;101897.50;4135853;28;20037;-71
2023/05/08 07:08:58;;;;;;;7.07;4.45;;;14.80;99.90;;;14.34;100.00;101900.94;4119392;28;20030;-71
2023/05/08 07:10:59;;;;;;;9.18;6.00;;;14.90;99.90;;;14.48;100.00;101899.59;4120840;28;20130;-71
2023/05/08 07:13:00;;;;;;;6.15;4.85;;;15.10;99.90;;;14.71;100.00;101898.94;4120779;28;20035;-71
2023/05/08 07:15:02;;;;;;;6.25;4.53;;;15.20;99.90;;;14.93;100.00;101913.56;4120891;28;20040;-71
2023/05/08 07:17:05;;;;;;;6.45;4.68;;;15.40;99.90;;;15.06;100.00;101907.78;4120524;28;20101;-71
2023/05/08 07:19:06;;;;;;;8.02;4.35;;;15.60;99.90;;;15.12;100.00;101915.13;4119779;28;20031;-72
2023/05/08 07:21:07;;;;;;;6.75;3.78;;;15.60;99.90;;;15.14;100.00;101914.00;4120723;28;20038;-72
2023/05/08 07:23:08;;;;;;;6.63;3.78;;;15.70;99.90;;;15.07;100.00;101917.44;4120600;28;20502;-71
2023/05/08 07:25:09;;;;;;;7.10;4.60;;;15.60;99.90;;;14.93;100.00;101918.88;4120547;28;20034;-72
2023/05/08 07:27:13;;;;;;;5.82;3.90;;;15.60;99.90;;;14.74;100.00;101916.38;4120990;28;20034;-71
2023/05/08 07:29:14;;;;;;;6.75;3.90;;;15.40;99.90;;;14.67;100.00;101920.63;4120498;28;20034;-72
2023/05/08 07:31:15;;;;;;;4.47;3.33;;;15.30;99.90;;;14.70;100.00;101922.97;4120508;28;20031;-71
2023/05/08 07:33:17;;;;;;;4.93;4.00;;;15.30;99.90;;;14.79;100.00;101919.41;4120611;28;20023;-72
2023/05/08 07:35:18;;;;;;;6.50;3.53;;;15.40;99.90;;;14.96;100.00;101915.91;4135347;28;20117;-71
2023/05/08 07:37:19;;;;;;;8.52;4.22;;;15.50;99.90;;;15.09;100.00;101910.97;4119032;28;20066;-72
2023/05/08 07:39:21;;;;;;;7.00;4.85;;;15.60;99.90;;;15.30;100.00;101914.09;4120376;28;20026;-71
2023/05/08 07:41:21;;;;;;;7.43;4.57;;;15.80;99.90;;;15.46;100.00;101924.00;4135398;28;20037;-71
2023/05/08 07:43:25;;;;;;;7.43;4.28;;;16.00;99.90;;;15.58;100.00;101922.75;4120152;28;20035;-71
2023/05/08 07:45:26;;;;;;;7.25;4.13;;;16.10;99.90;;;15.53;100.00;101921.56;4118399;28;20394;-71
2023/05/08 07:47:28;;;;;;;5.00;4.00;;;16.20;99.90;;;15.62;100.00;101931.25;4120453;28;20094;-71
2023/05/08 07:49:29;;;;;;;7.20;3.72;;;16.20;99.90;;;15.71;100.00;101930.28;4120449;28;20030;-71
2023/05/08 07:51:30;;;;;;;11.18;4.63;;;16.30;99.90;;;15.80;100.00;101926.66;4120372;28;20431;-71
2023/05/08 07:53:31;;;;;;;6.70;3.83;;;16.40;99.90;;;15.85;100.00;101927.00;4135029;28;20540;-71
2023/05/08 07:55:32;;;;;;;8.88;3.80;;;16.40;99.90;;;15.91;100.00;101927.19;4135275;28;20027;-71
2023/05/08 07:57:40;;;;;;;6.40;3.63;;;16.50;99.90;;;16.01;100.00;101927.03;4120436;28;20029;-70
2023/05/08 07:59:41;;;;;;;7.65;3.78;;;16.50;99.90;;;16.03;100.00;101930.38;4119880;28;20077;-70
2023/05/08 08:01:46;;;;;;;8.82;4.45;;;16.60;99.90;;;16.09;100.00;101923.56;4112867;28;20407;-71
2023/05/08 08:03:47;;;;;;;8.20;3.53;;;16.60;99.90;;;16.17;100.00;101926.25;4120423;28;20035;-70
2023/05/08 08:05:47;;;;;;;6.05;3.75;;;16.70;99.90;;;16.32;100.00;101920.13;4135001;28;20031;-71
2023/05/08 08:07:48;;;;;;;6.32;3.47;;;16.90;99.90;;;16.42;100.00;101902.16;4119760;28;20022;-71
2023/05/08 08:09:49;;;;;;;6.65;3.05;;;17.00;99.90;;;16.52;100.00;101905.47;4118823;28;20033;-71
2023/05/08 08:11:50;;;;;;;6.70;3.70;;;17.10;99.90;;;16.46;100.00;101906.13;4135068;28;20031;-71
2023/05/08 08:13:51;;;;;;;4.97;3.35;;;17.10;99.90;;;16.41;100.00;101900.50;4120119;28;20438;-71
2023/05/08 08:15:52;;;;;;;5.35;3.17;;;17.00;99.90;;;16.24;100.00;101904.16;4135189;28;20026;-70
2023/05/08 08:17:53;;;;;;;4.20;2.70;;;16.90;99.90;;;16.22;100.00;101914.09;4118930;28;20026;-70
2023/05/08 08:19:55;;;;;;;8.43;3.10;;;16.80;99.90;;;16.24;100.00;101905.97;4119066;28;20031;-71
2023/05/08 08:21:56;;;;;;;4.90;2.97;;;16.80;99.90;;;16.37;100.00;101895.63;4133503;28;20038;-71
2023/05/08 08:23:57;;;;;;;8.02;3.90;;;16.90;99.90;;;16.45;100.00;101893.84;4144132;28;20026;-71
2023/05/08 08:25:58;;;;;;;7.60;3.00;;;17.00;99.90;;;16.52;100.00;101893.97;4118648;28;20054;-71
2023/05/08 08:27:59;;;;;;;7.85;3.92;;;17.10;99.90;;;16.65;100.00;101888.19;4119911;28;20035;-70
2023/05/08 08:30:00;;;;;;;8.20;3.63;;;17.20;99.90;;;16.66;100.00;101889.88;4134904;28;20061;-71
2023/05/08 08:32:02;;;;;;;4.80;2.92;;;17.30;99.90;;;16.84;100.00;101890.53;4118782;28;20039;-71
2023/05/08 08:34:03;;;;;;;9.07;3.38;;;17.40;99.90;;;16.76;100.00;101887.84;4119814;28;20054;-72